Portada
METAR-TAF:

METAR-TAF

Aeropuertos :

Bojnourd, Irán

latitud: 37-28N, longitud: 057-20E, altitud: 1074 m

Observación

El informe se hizo hace 32 minutos, a las 03:00 UTC
Viento 6 kt del norte-noroeste
Temperatura 18°C
Humedad 77%
Presión 1017 hPa
Visibilidad: 5000 m
Escasas nubes a una altura de 900 ft
Cielo nuboso a una altura de 2500 ft
Cielo nuboso a una altura de 8000 ft
calima

METAR: OIMN 010300Z 34006KT 5000 HZ FEW009 BKN025 BKN080 18/14 Q1017

Hora: 08:02 (03:32 UTC)


TAF: falta

Observaciones y pronósticos meteorológicos de más de 4000 aeropuertos (mensajes METAR y TAF).

Los puntos amarillos y rojos representan las estaciones disponibles.

Ponga el ratón en el punto deseado para ver el nombre de la estación.

Haga clic para ver las observaciones y los pronósticos meteorológicos.

Para cambiar el mapa : haga clic en los botones verdes con una cruz de color negro para hacer un zoom, en el botón verde con un guión para alejar o en las flechas verdes para mapas adyacentes.


METAR-TAF: